createdAt,value
2023-03-22T00:01:53.547Z,0.70
2023-03-22T00:04:24.368Z,1.20
2023-03-22T00:06:54.843Z,1.00
2023-03-22T00:09:26.201Z,1.10
2023-03-22T00:11:57.044Z,1.00
2023-03-22T00:14:27.532Z,0.60
2023-03-22T00:16:57.820Z,1.10
2023-03-22T00:19:28.868Z,1.00
2023-03-22T00:22:00.477Z,0.90
2023-03-22T00:24:31.469Z,1.00
2023-03-22T00:27:02.136Z,0.80
2023-03-22T00:29:32.521Z,1.30
2023-03-22T00:32:03.922Z,1.30
2023-03-22T00:34:34.818Z,0.90
2023-03-22T00:37:05.666Z,0.80
2023-03-22T00:39:35.969Z,1.40
2023-03-22T00:42:07.032Z,1.30
2023-03-22T00:44:37.539Z,1.40
2023-03-22T00:47:07.945Z,1.20
2023-03-22T00:49:38.103Z,1.20
2023-03-22T00:52:08.257Z,0.90
2023-03-22T00:54:39.267Z,1.10
2023-03-22T00:57:10.041Z,0.60
2023-03-22T00:59:40.424Z,1.00
2023-03-22T01:02:13.088Z,0.90
2023-03-22T01:04:46.105Z,1.40
2023-03-22T01:07:21.205Z,0.60
2023-03-22T01:09:52.315Z,1.10
2023-03-22T01:12:22.692Z,0.80
2023-03-22T01:14:53.043Z,1.30
2023-03-22T01:17:23.277Z,0.80
2023-03-22T01:19:54.187Z,0.70
2023-03-22T01:22:24.461Z,1.20
2023-03-22T01:24:55.217Z,0.80
2023-03-22T01:27:25.386Z,1.10
2023-03-22T01:29:55.919Z,1.30
2023-03-22T01:32:26.304Z,1.40
2023-03-22T01:34:56.655Z,1.20
2023-03-22T01:37:27.530Z,2.30
2023-03-22T01:39:58.092Z,1.20
2023-03-22T01:42:28.758Z,1.40
2023-03-22T01:45:45.636Z,0.90
2023-03-22T01:48:24.132Z,1.20
2023-03-22T01:50:59.781Z,0.80
2023-03-22T01:53:31.661Z,1.00
2023-03-22T01:56:02.731Z,0.60
2023-03-22T01:58:34.047Z,0.60
2023-03-22T02:01:04.900Z,1.50
2023-03-22T02:03:49.348Z,1.00
2023-03-22T02:06:20.272Z,1.20
2023-03-22T02:08:52.627Z,1.00
2023-03-22T02:11:29.310Z,1.20
2023-03-22T02:14:12.004Z,0.70
2023-03-22T02:16:50.997Z,1.20
2023-03-22T02:19:42.030Z,1.30
2023-03-22T02:23:05.723Z,1.40
2023-03-22T02:26:03.674Z,1.30
2023-03-22T02:28:41.461Z,0.80
2023-03-22T02:31:23.034Z,0.60
2023-03-22T02:34:24.284Z,1.00
2023-03-22T02:37:07.958Z,0.90
2023-03-22T02:39:42.059Z,1.10
2023-03-22T02:42:22.497Z,0.90
2023-03-22T02:44:59.576Z,1.30
2023-03-22T02:47:38.932Z,1.50
2023-03-22T02:50:14.609Z,1.00
2023-03-22T02:52:49.540Z,1.10
2023-03-22T02:55:23.064Z,0.90
2023-03-22T02:57:57.349Z,1.10
2023-03-22T03:00:28.253Z,1.00
2023-03-22T03:03:00.919Z,1.10
2023-03-22T03:05:32.830Z,1.00
2023-03-22T03:08:04.078Z,1.00
2023-03-22T03:10:35.250Z,0.90
2023-03-22T03:13:06.168Z,1.10
2023-03-22T03:15:37.181Z,1.80
2023-03-22T03:18:23.937Z,1.50
2023-03-22T03:21:02.624Z,1.20
2023-03-22T03:23:40.453Z,1.50
2023-03-22T03:26:14.955Z,1.20
2023-03-22T03:28:50.412Z,1.40
2023-03-22T03:31:27.263Z,1.80
2023-03-22T03:34:03.459Z,1.20
2023-03-22T03:36:37.684Z,1.20
2023-03-22T03:39:10.909Z,1.30
2023-03-22T03:41:42.025Z,1.50
2023-03-22T03:44:13.125Z,1.40
2023-03-22T03:46:43.746Z,1.10
2023-03-22T03:49:15.214Z,1.10
2023-03-22T03:51:51.846Z,0.90
2023-03-22T03:54:23.621Z,1.50
2023-03-22T03:56:54.243Z,1.90
2023-03-22T03:59:24.975Z,1.60
2023-03-22T04:01:55.552Z,1.50
2023-03-22T04:04:27.856Z,1.20
2023-03-22T04:07:00.113Z,2.00
2023-03-22T04:09:33.128Z,1.60
2023-03-22T04:12:03.541Z,2.10
2023-03-22T04:14:34.458Z,1.70
2023-03-22T04:17:04.903Z,1.70
2023-03-22T04:19:35.335Z,2.90
2023-03-22T04:22:05.483Z,2.10
2023-03-22T04:24:37.888Z,3.50
2023-03-22T04:27:09.137Z,2.90
2023-03-22T04:29:40.339Z,3.20
2023-03-22T04:32:11.039Z,3.40
2023-03-22T04:34:42.176Z,3.50
2023-03-22T04:37:12.886Z,3.30
2023-03-22T04:39:43.203Z,3.30
2023-03-22T04:42:14.017Z,2.40
2023-03-22T04:44:44.557Z,1.80
2023-03-22T04:47:14.960Z,2.50
2023-03-22T04:49:45.387Z,2.40
2023-03-22T04:52:15.544Z,2.70
2023-03-22T04:54:45.869Z,2.10
2023-03-22T04:57:17.490Z,2.30
2023-03-22T04:59:47.742Z,2.50
2023-03-22T05:02:18.018Z,1.20
2023-03-22T05:04:48.757Z,1.40
2023-03-22T05:07:19.042Z,1.60
2023-03-22T05:09:50.011Z,2.50
2023-03-22T05:12:20.789Z,2.90
2023-03-22T05:14:51.143Z,2.20
2023-03-22T05:17:21.519Z,2.00
2023-03-22T05:19:51.954Z,4.10
2023-03-22T05:22:22.536Z,2.40
2023-03-22T05:24:53.559Z,3.10
2023-03-22T05:27:31.021Z,2.40
2023-03-22T05:30:01.676Z,2.70
2023-03-22T05:32:32.133Z,2.90
2023-03-22T05:35:05.034Z,3.40
2023-03-22T05:37:36.245Z,3.30
2023-03-22T05:40:09.714Z,3.40
2023-03-22T05:42:40.083Z,1.90
2023-03-22T05:45:12.394Z,2.50
2023-03-22T05:47:42.951Z,2.80
2023-03-22T05:50:15.223Z,3.60
2023-03-22T05:52:46.150Z,2.70
2023-03-22T05:55:17.904Z,3.30
2023-03-22T05:57:51.263Z,2.20
2023-03-22T06:00:23.652Z,3.20
2023-03-22T06:02:56.234Z,3.20
2023-03-22T06:05:26.756Z,2.30
2023-03-22T06:07:57.966Z,2.50
2023-03-22T06:10:28.480Z,3.00
2023-03-22T06:12:58.815Z,2.30
2023-03-22T06:15:29.246Z,2.50
2023-03-22T06:17:59.788Z,2.30
2023-03-22T06:20:30.032Z,2.80
2023-03-22T06:23:00.538Z,2.30
2023-03-22T06:25:31.631Z,1.80
2023-03-22T06:28:02.318Z,2.70
2023-03-22T06:30:32.755Z,3.10
2023-03-22T06:33:05.160Z,3.20
2023-03-22T06:35:35.730Z,3.20
2023-03-22T06:38:06.129Z,2.80
2023-03-22T06:40:36.357Z,2.90
2023-03-22T06:43:07.426Z,2.20
2023-03-22T06:45:37.926Z,1.50
2023-03-22T06:48:09.058Z,3.90
2023-03-22T06:50:43.959Z,1.90
2023-03-22T06:53:14.514Z,2.00
2023-03-22T06:55:44.871Z,2.90
2023-03-22T06:58:15.151Z,1.60
2023-03-22T07:00:45.724Z,2.70
2023-03-22T07:03:16.392Z,1.90
2023-03-22T07:05:47.690Z,2.80
2023-03-22T07:08:17.960Z,1.90
2023-03-22T07:10:51.734Z,2.40
2023-03-22T07:13:21.881Z,3.60
2023-03-22T07:15:54.107Z,1.80
2023-03-22T07:18:24.532Z,3.00
2023-03-22T07:20:54.900Z,1.60
2023-03-22T07:23:25.754Z,1.80
2023-03-22T07:25:56.228Z,2.40
2023-03-22T07:28:26.891Z,2.10
2023-03-22T07:31:03.085Z,2.20
2023-03-22T07:33:33.375Z,2.40
2023-03-22T07:36:04.304Z,2.80
2023-03-22T07:38:35.013Z,2.50
2023-03-22T07:41:05.924Z,1.70
2023-03-22T07:43:50.881Z,1.30
2023-03-22T07:46:23.657Z,1.80
2023-03-22T07:48:53.937Z,1.70
2023-03-22T07:51:24.530Z,2.80
2023-03-22T07:53:54.808Z,2.70
2023-03-22T07:56:25.800Z,2.50
2023-03-22T07:58:56.074Z,1.80
2023-03-22T08:01:26.776Z,1.50
2023-03-22T08:03:56.904Z,2.40
2023-03-22T08:06:28.130Z,1.30
2023-03-22T08:08:58.371Z,1.80
2023-03-22T08:11:28.645Z,1.00
2023-03-22T08:13:59.112Z,1.10
2023-03-22T08:16:29.712Z,1.50
2023-03-22T08:19:00.204Z,1.90
2023-03-22T08:21:30.637Z,2.00
2023-03-22T08:24:00.746Z,1.50
2023-03-22T08:26:32.018Z,1.40
2023-03-22T08:29:02.891Z,2.00
2023-03-22T08:31:33.316Z,2.00
2023-03-22T08:34:03.721Z,1.70
2023-03-22T08:36:33.996Z,3.10
2023-03-22T08:39:04.655Z,2.50
2023-03-22T08:41:35.263Z,2.60
2023-03-22T08:44:05.683Z,3.20
2023-03-22T08:46:36.273Z,3.30
2023-03-22T08:49:06.616Z,2.60
2023-03-22T08:51:36.997Z,1.90
2023-03-22T08:54:08.304Z,2.70
2023-03-22T08:56:38.896Z,2.80
2023-03-22T08:59:10.244Z,3.00
2023-03-22T09:01:40.622Z,3.80
2023-03-22T09:04:11.587Z,2.20
2023-03-22T09:06:45.183Z,3.10
2023-03-22T09:09:15.831Z,3.10
2023-03-22T09:11:46.172Z,2.60
2023-03-22T09:14:16.714Z,2.60
2023-03-22T09:16:47.759Z,2.80
2023-03-22T09:19:18.257Z,4.40
2023-03-22T09:21:49.800Z,6.20
2023-03-22T09:24:20.309Z,2.70
2023-03-22T09:26:51.159Z,4.80
2023-03-22T09:29:21.576Z,3.90
2023-03-22T09:31:52.100Z,3.20
2023-03-22T09:34:22.389Z,3.70
2023-03-22T09:36:53.425Z,3.70
2023-03-22T09:39:23.968Z,2.60
2023-03-22T09:41:56.762Z,3.70
2023-03-22T09:44:29.963Z,2.90
2023-03-22T09:47:02.213Z,3.20
2023-03-22T09:49:52.286Z,4.20
2023-03-22T09:52:23.686Z,3.10
2023-03-22T09:54:55.151Z,2.70
2023-03-22T09:57:30.100Z,3.10
2023-03-22T10:00:11.435Z,3.50
2023-03-22T10:02:49.088Z,2.50
2023-03-22T10:05:27.592Z,4.60
2023-03-22T10:08:32.828Z,3.30
2023-03-22T10:11:03.073Z,3.50
2023-03-22T10:13:37.661Z,4.10
2023-03-22T10:16:12.974Z,2.80
2023-03-22T10:18:46.947Z,3.20
2023-03-22T10:21:18.106Z,4.30
2023-03-22T10:23:50.414Z,2.60
2023-03-22T10:26:23.775Z,3.00
2023-03-22T10:29:03.886Z,3.10
2023-03-22T10:31:36.175Z,2.40
2023-03-22T10:34:08.581Z,2.70
2023-03-22T10:36:40.431Z,3.30
2023-03-22T10:39:16.466Z,3.50
2023-03-22T10:41:46.863Z,2.10
2023-03-22T10:44:18.889Z,2.40
2023-03-22T10:46:51.233Z,3.40
2023-03-22T10:49:28.044Z,3.00
2023-03-22T10:52:01.490Z,3.30
2023-03-22T10:54:32.756Z,3.00
2023-03-22T10:57:03.275Z,3.50
2023-03-22T10:59:48.984Z,2.90
2023-03-22T11:02:21.465Z,2.70
2023-03-22T11:04:53.714Z,3.00
2023-03-22T11:07:35.859Z,2.40
2023-03-22T11:10:32.405Z,2.90
2023-03-22T11:13:21.365Z,3.30
2023-03-22T11:15:58.934Z,3.80
2023-03-22T11:18:32.212Z,2.90
2023-03-22T11:21:05.429Z,3.00
2023-03-22T11:23:38.225Z,3.30
2023-03-22T11:26:11.536Z,3.50
2023-03-22T11:28:48.558Z,3.50
2023-03-22T11:31:19.889Z,2.30
2023-03-22T11:33:58.203Z,3.00
2023-03-22T11:36:29.421Z,3.60
2023-03-22T11:39:02.397Z,2.90
2023-03-22T11:41:36.933Z,3.10
2023-03-22T11:44:08.558Z,2.80
2023-03-22T11:46:39.782Z,3.50
2023-03-22T11:49:13.968Z,3.50
2023-03-22T11:51:44.673Z,2.40
2023-03-22T11:54:20.598Z,3.10
2023-03-22T11:56:51.104Z,2.70
2023-03-22T11:59:25.915Z,2.80
2023-03-22T12:02:01.805Z,5.10
2023-03-22T12:04:36.761Z,2.90
2023-03-22T12:07:10.545Z,4.20
2023-03-22T12:09:44.387Z,2.90
2023-03-22T12:12:18.948Z,3.40
2023-03-22T12:14:53.023Z,1.80
2023-03-22T12:17:30.768Z,2.70
2023-03-22T12:20:08.255Z,3.90
2023-03-22T12:22:41.991Z,3.00
2023-03-22T12:25:18.664Z,3.20
2023-03-22T12:27:50.738Z,3.60
2023-03-22T12:30:23.306Z,3.00
2023-03-22T12:32:58.653Z,2.80
2023-03-22T12:35:31.379Z,2.70
2023-03-22T12:38:12.555Z,2.50
2023-03-22T12:40:45.660Z,2.80
2023-03-22T12:43:19.762Z,3.50
2023-03-22T12:45:53.763Z,3.00
2023-03-22T12:48:32.400Z,3.30
2023-03-22T12:51:07.041Z,2.60
2023-03-22T12:53:43.329Z,3.10
2023-03-22T12:56:16.392Z,3.10
2023-03-22T12:58:51.497Z,3.00
2023-03-22T13:01:33.433Z,4.60
2023-03-22T13:04:51.434Z,3.30
2023-03-22T13:07:40.754Z,4.10
2023-03-22T13:10:47.123Z,4.20
2023-03-22T13:13:33.593Z,3.30
2023-03-22T13:16:16.364Z,4.40
2023-03-22T13:19:01.724Z,3.30
2023-03-22T13:21:35.540Z,4.20
2023-03-22T13:24:23.748Z,3.70
2023-03-22T13:26:56.593Z,3.20
2023-03-22T13:29:36.794Z,3.00
2023-03-22T13:32:28.410Z,2.70
2023-03-22T13:34:59.221Z,3.50
2023-03-22T13:37:35.434Z,3.90
2023-03-22T13:40:14.708Z,3.30
2023-03-22T13:42:45.147Z,3.70
2023-03-22T13:45:31.789Z,3.40
2023-03-22T13:48:07.849Z,4.30
2023-03-22T13:50:39.720Z,3.20
2023-03-22T13:53:16.956Z,5.80
2023-03-22T13:56:01.283Z,3.80
2023-03-22T13:58:38.368Z,3.10
2023-03-22T14:01:13.442Z,4.40
2023-03-22T14:03:45.795Z,3.80
2023-03-22T14:06:21.501Z,3.50
2023-03-22T14:08:55.364Z,3.90
2023-03-22T14:11:29.828Z,3.10
2023-03-22T14:14:04.327Z,4.30
2023-03-22T14:16:39.259Z,3.20
2023-03-22T14:19:15.084Z,3.60
